createdAt,value
2019-03-04T00:00:04.954Z,8.21
2019-03-04T00:01:45.605Z,8.22
2019-03-04T00:03:25.002Z,8.21
2019-03-04T00:05:00.810Z,8.18
2019-03-04T00:06:39.413Z,8.18
2019-03-04T00:08:18.594Z,8.18
2019-03-04T00:09:58.257Z,8.20
2019-03-04T00:11:36.490Z,8.22
2019-03-04T00:13:13.637Z,8.20
2019-03-04T00:14:51.565Z,8.20
2019-03-04T00:16:30.512Z,8.19
2019-03-04T00:18:11.578Z,8.23
2019-03-04T00:19:48.460Z,8.19
2019-03-04T00:21:25.350Z,8.18
2019-03-04T00:23:03.352Z,8.17
2019-03-04T00:24:39.328Z,8.20
2019-03-04T00:26:14.363Z,8.19
2019-03-04T00:27:50.566Z,8.17
2019-03-04T00:29:26.075Z,8.17
2019-03-04T00:31:05.185Z,8.19
2019-03-04T00:32:42.731Z,8.18
2019-03-04T00:34:18.188Z,8.19
2019-03-04T00:35:53.639Z,8.17
2019-03-04T00:37:28.654Z,8.18
2019-03-04T00:39:05.143Z,8.17
2019-03-04T00:40:40.257Z,8.15
2019-03-04T00:42:15.837Z,8.16
2019-03-04T00:43:51.486Z,8.16
2019-03-04T00:45:26.636Z,8.10
2019-03-04T00:47:02.187Z,8.16
2019-03-04T00:48:38.149Z,8.11
2019-03-04T00:50:13.636Z,8.09
2019-03-04T00:51:49.047Z,8.09
2019-03-04T00:53:24.456Z,8.08
2019-03-04T00:55:00.386Z,8.07
2019-03-04T00:56:35.579Z,8.07
2019-03-04T00:58:10.605Z,8.05
2019-03-04T00:59:46.697Z,8.06
2019-03-04T01:01:22.169Z,8.02
2019-03-04T01:02:57.659Z,7.95
2019-03-04T01:04:32.937Z,8.00
2019-03-04T01:06:08.137Z,7.94
2019-03-04T01:07:43.261Z,7.95
2019-03-04T01:09:18.597Z,7.96
2019-03-04T01:10:56.817Z,7.98
2019-03-04T01:12:31.933Z,7.97
2019-03-04T01:14:14.111Z,8.00
2019-03-04T01:15:49.396Z,8.01
2019-03-04T01:17:24.515Z,8.04
2019-03-04T01:18:59.737Z,7.99
2019-03-04T01:20:34.955Z,7.97
2019-03-04T01:22:10.119Z,7.99
2019-03-04T01:23:45.254Z,8.01
2019-03-04T01:25:23.738Z,8.00
2019-03-04T01:26:58.979Z,8.00
2019-03-04T01:28:34.688Z,7.99
2019-03-04T01:30:15.235Z,8.02
2019-03-04T01:31:50.374Z,8.03
2019-03-04T01:33:27.022Z,8.00
2019-03-04T01:35:02.382Z,8.03
2019-03-04T01:36:37.592Z,8.05
2019-03-04T01:38:13.321Z,8.06
2019-03-04T01:39:48.826Z,8.07
2019-03-04T01:41:24.374Z,8.07
2019-03-04T01:42:59.430Z,8.07
2019-03-04T01:44:34.688Z,8.09
2019-03-04T01:46:10.498Z,8.10
2019-03-04T01:47:46.080Z,8.10
2019-03-04T01:49:21.795Z,8.12
2019-03-04T01:50:56.999Z,8.13
2019-03-04T01:52:32.249Z,8.15
2019-03-04T01:54:07.323Z,8.16
2019-03-04T01:55:42.594Z,8.16
2019-03-04T01:57:18.352Z,8.16
2019-03-04T01:58:53.477Z,8.16
2019-03-04T02:00:28.740Z,8.18
2019-03-04T02:02:04.044Z,8.22
2019-03-04T02:03:39.663Z,8.19
2019-03-04T02:05:15.262Z,8.20
2019-03-04T02:06:52.523Z,8.23
2019-03-04T02:08:28.044Z,8.20
2019-03-04T02:10:03.298Z,8.21
2019-03-04T02:11:39.092Z,8.23
2019-03-04T02:13:14.273Z,8.27
2019-03-04T02:14:49.322Z,8.31
2019-03-04T02:16:24.535Z,8.35
2019-03-04T02:18:02.658Z,8.31
2019-03-04T02:19:37.792Z,8.35
2019-03-04T02:21:13.474Z,8.35
2019-03-04T02:22:48.629Z,8.39
2019-03-04T02:24:26.124Z,8.38
2019-03-04T02:26:14.234Z,8.34
2019-03-04T02:27:56.077Z,8.32
2019-03-04T02:29:31.174Z,8.33
2019-03-04T02:31:06.393Z,8.33
2019-03-04T02:32:45.578Z,8.34
2019-03-04T02:34:20.994Z,8.32
2019-03-04T02:35:56.580Z,8.27
2019-03-04T02:37:31.860Z,8.24
2019-03-04T02:39:07.707Z,8.29
2019-03-04T02:40:43.369Z,8.32
2019-03-04T02:42:20.317Z,8.33
2019-03-04T02:43:55.868Z,8.29
2019-03-04T02:45:31.324Z,8.31
2019-03-04T02:47:06.593Z,8.31
2019-03-04T02:48:44.533Z,8.30
2019-03-04T02:50:20.968Z,8.32
2019-03-04T02:51:56.331Z,8.30
2019-03-04T02:53:31.578Z,8.31
2019-03-04T02:55:07.566Z,8.31
2019-03-04T02:56:43.158Z,8.30
2019-03-04T02:58:18.311Z,8.28
2019-03-04T02:59:53.991Z,8.29
2019-03-04T03:01:29.665Z,8.29
2019-03-04T03:03:04.942Z,8.28
2019-03-04T03:04:40.735Z,8.32
2019-03-04T03:06:16.091Z,8.28
2019-03-04T03:07:51.310Z,8.23
2019-03-04T03:09:26.551Z,8.22
2019-03-04T03:11:02.274Z,8.26
2019-03-04T03:12:48.474Z,8.27
2019-03-04T03:14:23.972Z,8.24
2019-03-04T03:15:59.578Z,8.33
2019-03-04T03:17:35.407Z,8.31
2019-03-04T03:19:13.559Z,8.37
2019-03-04T03:20:48.821Z,8.34
2019-03-04T03:22:24.126Z,8.35
2019-03-04T03:23:59.663Z,8.35
2019-03-04T03:25:34.862Z,8.40
2019-03-04T03:27:10.888Z,8.39
2019-03-04T03:28:46.152Z,8.40
2019-03-04T03:30:21.441Z,8.38
2019-03-04T03:31:56.756Z,8.36
2019-03-04T03:33:31.864Z,8.41
2019-03-04T03:35:08.789Z,8.41
2019-03-04T03:36:47.289Z,8.42
2019-03-04T03:38:22.785Z,8.45
2019-03-04T03:39:58.714Z,8.46
2019-03-04T03:41:35.261Z,8.51
2019-03-04T03:43:10.998Z,8.51
2019-03-04T03:44:46.113Z,8.56
2019-03-04T03:46:21.678Z,8.59
2019-03-04T03:47:56.721Z,8.59
2019-03-04T03:49:32.019Z,8.65
2019-03-04T03:51:07.520Z,8.61
2019-03-04T03:52:43.024Z,8.58
2019-03-04T03:54:18.397Z,8.59
2019-03-04T03:55:53.599Z,8.62
2019-03-04T03:57:29.089Z,8.67
2019-03-04T03:59:04.581Z,8.69
2019-03-04T04:00:39.846Z,8.64
2019-03-04T04:02:14.970Z,8.67
2019-03-04T04:03:50.115Z,8.73
2019-03-04T04:05:25.326Z,8.77
2019-03-04T04:07:01.359Z,8.73
2019-03-04T04:08:36.662Z,8.76
2019-03-04T04:10:14.937Z,8.78
2019-03-04T04:11:50.710Z,8.75
2019-03-04T04:13:25.920Z,8.78
2019-03-04T04:15:01.000Z,8.76
2019-03-04T04:16:36.232Z,8.75
2019-03-04T04:18:11.393Z,8.72
2019-03-04T04:19:46.498Z,8.78
2019-03-04T04:21:22.243Z,8.85
2019-03-04T04:22:57.846Z,8.89
2019-03-04T04:24:33.150Z,8.89
2019-03-04T04:26:21.638Z,8.85
2019-03-04T04:27:57.097Z,8.85
2019-03-04T04:29:36.968Z,8.86
2019-03-04T04:31:12.801Z,8.90
2019-03-04T04:32:47.914Z,8.88
2019-03-04T04:34:23.185Z,8.90
2019-03-04T04:35:58.377Z,8.91
2019-03-04T04:37:34.399Z,8.97
2019-03-04T04:39:10.093Z,8.95
2019-03-04T04:40:45.439Z,9.01
2019-03-04T04:42:20.759Z,9.01
2019-03-04T04:43:55.855Z,9.02
2019-03-04T04:45:33.075Z,8.99
2019-03-04T04:47:11.617Z,9.02
2019-03-04T04:48:46.751Z,8.98
2019-03-04T04:50:22.850Z,9.00
2019-03-04T04:52:03.927Z,9.03
2019-03-04T04:53:39.299Z,8.98
2019-03-04T04:55:14.366Z,8.99
2019-03-04T04:56:49.771Z,8.98
2019-03-04T04:58:24.863Z,8.94
2019-03-04T05:00:00.293Z,8.90
2019-03-04T05:01:35.349Z,8.87
2019-03-04T05:03:10.487Z,8.85
2019-03-04T05:04:45.564Z,8.84
2019-03-04T05:06:20.567Z,8.82
2019-03-04T05:07:56.281Z,8.81
2019-03-04T05:09:31.323Z,8.78
2019-03-04T05:11:10.838Z,8.77
2019-03-04T05:12:46.006Z,8.78
2019-03-04T05:14:21.075Z,8.77
2019-03-04T05:15:56.117Z,8.75
2019-03-04T05:17:31.137Z,8.73
2019-03-04T05:19:06.275Z,8.69
2019-03-04T05:20:41.318Z,8.67
2019-03-04T05:22:16.843Z,8.69
2019-03-04T05:23:52.835Z,8.68
2019-03-04T05:25:27.895Z,8.66
2019-03-04T05:27:02.989Z,8.66
2019-03-04T05:28:38.083Z,8.67
2019-03-04T05:30:17.783Z,8.69
2019-03-04T05:31:52.804Z,8.77
2019-03-04T05:33:27.937Z,8.79
2019-03-04T05:35:02.971Z,8.77
2019-03-04T05:36:38.016Z,8.78
2019-03-04T05:38:13.373Z,8.79
2019-03-04T05:39:48.590Z,8.79
2019-03-04T05:41:23.871Z,8.80
2019-03-04T05:42:59.273Z,8.80
2019-03-04T05:44:35.956Z,8.83
2019-03-04T05:46:11.019Z,8.82
2019-03-04T05:47:48.419Z,8.81
2019-03-04T05:49:23.658Z,8.80
2019-03-04T05:50:58.719Z,8.81
2019-03-04T05:52:36.862Z,8.82
2019-03-04T05:54:12.046Z,8.86
2019-03-04T05:55:47.970Z,8.85
2019-03-04T05:57:23.150Z,8.80
2019-03-04T05:58:58.276Z,8.80
2019-03-04T06:00:40.822Z,8.80
2019-03-04T06:02:16.197Z,8.79
2019-03-04T06:03:55.566Z,8.79
2019-03-04T06:05:30.671Z,8.82
2019-03-04T06:07:13.234Z,8.79
2019-03-04T06:08:48.337Z,8.79
2019-03-04T06:10:24.575Z,8.76
2019-03-04T06:11:59.979Z,8.76
2019-03-04T06:13:35.845Z,8.75
2019-03-04T06:15:15.389Z,8.68
2019-03-04T06:16:50.768Z,8.68
2019-03-04T06:18:25.930Z,8.69
2019-03-04T06:20:01.489Z,8.69
2019-03-04T06:21:36.884Z,8.69
2019-03-04T06:23:12.779Z,8.73
2019-03-04T06:24:48.080Z,8.71
2019-03-04T06:26:23.181Z,8.71
2019-03-04T06:27:58.399Z,8.70
2019-03-04T06:29:33.893Z,8.68
2019-03-04T06:31:12.234Z,8.69
2019-03-04T06:32:47.379Z,8.61
2019-03-04T06:34:22.831Z,8.61
2019-03-04T06:36:00.261Z,8.60
2019-03-04T06:37:38.484Z,8.60
2019-03-04T06:39:14.338Z,8.63
2019-03-04T06:40:52.717Z,8.60
2019-03-04T06:42:29.605Z,8.62
2019-03-04T06:44:04.762Z,8.62
2019-03-04T06:45:41.940Z,8.58
2019-03-04T06:47:17.976Z,8.61
2019-03-04T06:49:04.999Z,8.58
2019-03-04T06:50:51.297Z,8.57
2019-03-04T06:52:29.821Z,8.57
2019-03-04T06:54:46.820Z,8.59
2019-03-04T06:56:29.431Z,8.57
2019-03-04T06:58:04.504Z,8.61
2019-03-04T07:00:19.847Z,8.57
2019-03-04T07:01:58.409Z,8.51
2019-03-04T07:03:47.460Z,8.38
2019-03-04T07:05:52.556Z,8.06
2019-03-04T07:07:34.084Z,6.62
2019-03-04T07:09:15.502Z,5.90
2019-03-04T07:10:50.987Z,5.58
2019-03-04T07:12:27.315Z,5.32
2019-03-04T07:14:02.997Z,5.12
2019-03-04T07:15:43.582Z,4.95
2019-03-04T07:17:22.278Z,4.88
2019-03-04T07:19:05.184Z,4.84
2019-03-04T07:20:42.090Z,4.75
2019-03-04T07:22:19.671Z,4.67
2019-03-04T07:24:06.382Z,4.62
2019-03-04T07:25:46.268Z,4.59
2019-03-04T07:27:28.861Z,4.51
2019-03-04T07:29:08.495Z,4.53
2019-03-04T07:30:44.856Z,4.51
2019-03-04T07:32:29.849Z,4.56
2019-03-04T07:34:21.582Z,4.58
2019-03-04T07:35:57.848Z,4.57
2019-03-04T07:37:42.382Z,4.59
2019-03-04T07:39:25.658Z,4.65
2019-03-04T07:41:05.161Z,4.75
2019-03-04T07:42:47.821Z,4.82
2019-03-04T07:44:23.502Z,4.90
2019-03-04T07:46:01.837Z,4.92
2019-03-04T07:47:41.497Z,4.96
2019-03-04T07:49:36.966Z,5.00
2019-03-04T07:51:18.069Z,4.99
2019-03-04T07:52:59.384Z,5.08
2019-03-04T07:54:37.734Z,5.11
2019-03-04T07:56:20.239Z,5.14
2019-03-04T07:57:56.123Z,5.23
2019-03-04T07:59:37.720Z,5.31
2019-03-04T08:01:13.028Z,5.32
2019-03-04T08:02:48.776Z,5.33
2019-03-04T08:04:27.604Z,5.36
2019-03-04T08:06:10.689Z,5.39
2019-03-04T08:07:54.305Z,5.39
2019-03-04T08:10:14.587Z,5.43
2019-03-04T08:12:25.437Z,5.46
2019-03-04T08:14:07.122Z,5.48
2019-03-04T08:16:01.010Z,5.40
2019-03-04T08:17:36.559Z,5.43
2019-03-04T08:19:12.345Z,5.46
2019-03-04T08:20:50.185Z,5.49
2019-03-04T08:22:25.855Z,5.50
2019-03-04T08:24:01.379Z,5.57
2019-03-04T08:25:36.839Z,5.52
2019-03-04T08:27:15.802Z,5.52
2019-03-04T08:28:51.591Z,5.52
2019-03-04T08:30:34.593Z,5.61
2019-03-04T08:32:15.323Z,5.72
2019-03-04T08:34:03.962Z,5.79
2019-03-04T08:35:47.918Z,5.93
2019-03-04T08:37:26.250Z,5.95
2019-03-04T08:39:09.426Z,6.00
2019-03-04T08:40:49.387Z,6.19
2019-03-04T08:42:33.200Z,6.13
2019-03-04T08:44:11.217Z,6.04
2019-03-04T08:45:48.791Z,6.04
2019-03-04T08:47:41.642Z,6.10
2019-03-04T08:49:18.821Z,6.05
2019-03-04T08:50:54.299Z,6.07
2019-03-04T08:52:39.701Z,6.09
2019-03-04T08:54:22.602Z,5.94
2019-03-04T08:56:00.693Z,5.91
2019-03-04T08:57:36.799Z,5.96
2019-03-04T08:59:27.156Z,6.03
2019-03-04T09:01:12.709Z,5.94
2019-03-04T09:02:58.136Z,5.86
2019-03-04T09:04:34.464Z,5.91
2019-03-04T09:06:12.921Z,6.03
2019-03-04T09:07:51.556Z,6.06
2019-03-04T09:09:27.504Z,6.07
2019-03-04T09:11:08.257Z,6.23
2019-03-04T09:12:43.830Z,6.25
2019-03-04T09:14:19.037Z,6.20
2019-03-04T09:15:57.599Z,6.23
2019-03-04T09:17:32.849Z,6.25
2019-03-04T09:19:08.388Z,6.46
2019-03-04T09:20:46.805Z,6.56
2019-03-04T09:22:22.981Z,6.61
2019-03-04T09:24:01.842Z,6.63
2019-03-04T09:25:39.768Z,6.71
2019-03-04T09:27:31.689Z,6.77
2019-03-04T09:29:09.557Z,6.68
2019-03-04T09:30:46.366Z,6.74
2019-03-04T09:32:28.100Z,6.79
2019-03-04T09:34:03.403Z,6.88
2019-03-04T09:35:38.587Z,6.85
2019-03-04T09:37:13.735Z,6.83
2019-03-04T09:38:53.370Z,6.79
2019-03-04T09:40:30.052Z,6.70
2019-03-04T09:42:16.123Z,6.68
2019-03-04T09:43:51.688Z,6.70
2019-03-04T09:45:38.969Z,6.69
2019-03-04T09:47:14.522Z,6.59
2019-03-04T09:48:49.661Z,6.57
2019-03-04T09:50:29.501Z,6.57
2019-03-04T09:52:04.594Z,6.57
2019-03-04T09:53:39.957Z,6.53
2019-03-04T09:55:16.042Z,6.57
2019-03-04T09:56:51.220Z,6.56
2019-03-04T09:58:29.901Z,6.54
2019-03-04T10:00:33.505Z,6.56
2019-03-04T10:02:35.213Z,6.58
2019-03-04T10:04:53.167Z,6.56
2019-03-04T10:07:09.733Z,6.56
2019-03-04T10:09:01.181Z,6.62
2019-03-04T10:11:38.368Z,6.64
2019-03-04T10:14:10.645Z,6.67
2019-03-04T10:16:19.589Z,6.68
2019-03-04T10:18:25.705Z,6.65
2019-03-04T10:20:52.432Z,6.70
2019-03-04T10:23:37.349Z,6.66
2019-03-04T10:25:51.829Z,6.61
2019-03-04T10:28:02.756Z,6.52
2019-03-04T10:30:16.065Z,6.47
2019-03-04T10:32:18.965Z,6.41
2019-03-04T10:34:34.153Z,6.42
2019-03-04T10:36:39.997Z,6.50
2019-03-04T10:38:43.267Z,6.59
2019-03-04T10:41:06.440Z,6.79
2019-03-04T10:43:32.438Z,6.88
2019-03-04T10:46:01.223Z,6.89
2019-03-04T10:47:41.013Z,6.96
2019-03-04T10:49:28.759Z,6.98
2019-03-04T10:51:08.539Z,7.05
2019-03-04T10:52:48.835Z,7.06
2019-03-04T10:54:25.411Z,6.99
2019-03-04T10:56:01.102Z,6.92
2019-03-04T10:57:44.423Z,6.88
2019-03-04T10:59:28.772Z,6.90
2019-03-04T11:01:04.219Z,6.89
2019-03-04T11:02:39.480Z,6.81
2019-03-04T11:04:17.819Z,6.87
2019-03-04T11:05:56.052Z,6.84
2019-03-04T11:07:36.593Z,6.78
2019-03-04T11:09:11.811Z,6.72
2019-03-04T11:10:49.051Z,6.75
2019-03-04T11:12:24.578Z,6.84
2019-03-04T11:14:02.206Z,6.85
2019-03-04T11:15:40.433Z,6.83
2019-03-04T11:17:18.666Z,6.82
2019-03-04T11:18:54.036Z,6.88
2019-03-04T11:20:32.399Z,6.89
2019-03-04T11:22:07.665Z,6.84
2019-03-04T11:23:44.024Z,6.87
2019-03-04T11:25:22.645Z,6.92
2019-03-04T11:26:59.832Z,6.96
2019-03-04T11:28:35.869Z,6.97
2019-03-04T11:30:17.855Z,6.97
2019-03-04T11:32:00.550Z,7.00
2019-03-04T11:33:43.157Z,7.01
2019-03-04T11:35:18.558Z,7.05
2019-03-04T11:36:54.382Z,7.11
2019-03-04T11:38:39.713Z,7.08
2019-03-04T11:40:35.445Z,7.14
2019-03-04T11:42:14.142Z,7.14
2019-03-04T11:43:51.911Z,7.19
2019-03-04T11:45:35.047Z,7.22
2019-03-04T11:47:12.323Z,7.27
2019-03-04T11:48:48.003Z,7.39
2019-03-04T11:50:30.021Z,7.46
2019-03-04T11:52:12.833Z,7.56
2019-03-04T11:53:51.167Z,7.44
2019-03-04T11:55:30.178Z,7.33
2019-03-04T11:57:10.780Z,7.21
2019-03-04T11:59:05.404Z,7.04
2019-03-04T12:00:49.445Z,6.96
2019-03-04T12:02:38.948Z,6.80
2019-03-04T12:04:16.534Z,6.69
2019-03-04T12:07:59.201Z,6.48
2019-03-04T12:09:39.217Z,6.34
2019-03-04T12:11:21.477Z,6.36
2019-03-04T12:13:03.164Z,6.32
2019-03-04T12:14:43.283Z,6.17
2019-03-04T12:16:18.476Z,6.10
2019-03-04T12:17:55.423Z,5.93
2019-03-04T12:19:36.427Z,4.52
2019-03-04T12:21:14.820Z,3.61
2019-03-04T12:22:53.979Z,3.39
2019-03-04T12:24:30.170Z,3.29
2019-03-04T12:26:06.111Z,3.29
2019-03-04T12:27:46.517Z,3.30
2019-03-04T12:29:22.229Z,3.26
2019-03-04T12:31:00.536Z,3.23
2019-03-04T12:32:39.864Z,3.24
2019-03-04T12:34:27.859Z,3.20
2019-03-04T12:36:11.108Z,3.23
2019-03-04T12:37:46.816Z,3.20
2019-03-04T12:39:27.658Z,3.11
2019-03-04T12:41:07.657Z,3.10
2019-03-04T12:42:45.813Z,3.02
2019-03-04T12:44:29.385Z,2.99
2019-03-04T12:46:04.665Z,2.94
2019-03-04T12:47:41.394Z,2.92
2019-03-04T12:49:19.020Z,2.88
2019-03-04T12:50:56.127Z,2.85
2019-03-04T12:52:37.746Z,2.88
2019-03-04T12:54:13.471Z,2.93
2019-03-04T12:55:48.766Z,3.00
2019-03-04T12:57:24.618Z,3.03
2019-03-04T12:59:00.239Z,3.15
2019-03-04T13:00:35.576Z,3.19
2019-03-04T13:02:12.448Z,3.23
2019-03-04T13:03:47.981Z,3.26
2019-03-04T13:05:23.987Z,3.32
2019-03-04T13:07:01.353Z,3.36
2019-03-04T13:08:37.925Z,3.36
2019-03-04T13:10:13.251Z,3.42
2019-03-04T13:11:55.993Z,3.41
2019-03-04T13:13:30.894Z,3.41
2019-03-04T13:15:13.455Z,3.44
2019-03-04T13:16:48.632Z,3.52
2019-03-04T13:18:23.759Z,3.52
2019-03-04T13:20:01.952Z,3.53
2019-03-04T13:21:44.609Z,3.49
2019-03-04T13:23:33.525Z,3.60
2019-03-04T13:25:10.710Z,3.49
2019-03-04T13:26:52.345Z,3.50
2019-03-04T13:28:28.173Z,3.50
2019-03-04T13:30:04.779Z,3.50
2019-03-04T13:31:41.977Z,3.53
2019-03-04T13:33:21.553Z,3.64
2019-03-04T13:35:02.412Z,3.67
2019-03-04T13:36:40.944Z,3.60
2019-03-04T13:38:23.931Z,3.62
2019-03-04T13:40:07.732Z,3.65
2019-03-04T13:41:43.669Z,3.72
2019-03-04T13:43:30.723Z,3.79
2019-03-04T13:45:22.461Z,3.72
2019-03-04T13:46:59.558Z,3.56
2019-03-04T13:48:35.002Z,3.56
2019-03-04T13:50:13.940Z,3.58
2019-03-04T13:51:57.380Z,3.70
2019-03-04T13:53:35.368Z,3.77
2019-03-04T13:55:13.695Z,3.76
2019-03-04T13:56:55.156Z,3.75
2019-03-04T13:58:40.493Z,3.79
2019-03-04T14:00:22.350Z,3.84
2019-03-04T14:02:00.381Z,3.92
2019-03-04T14:03:36.642Z,3.93
2019-03-04T14:05:12.835Z,3.94
2019-03-04T14:06:49.812Z,3.91
2019-03-04T14:08:26.869Z,4.02
2019-03-04T14:10:02.430Z,4.02
2019-03-04T14:11:37.539Z,3.96
2019-03-04T14:13:12.761Z,4.05
2019-03-04T14:14:49.192Z,4.19
2019-03-04T14:16:25.960Z,4.19
2019-03-04T14:18:01.151Z,4.20
2019-03-04T14:19:37.022Z,4.08
2019-03-04T14:21:14.473Z,4.07
2019-03-04T14:22:57.592Z,4.05
2019-03-04T14:24:32.228Z,4.05
2019-03-04T14:26:17.880Z,4.11
2019-03-04T14:27:57.715Z,4.09
2019-03-04T14:29:35.045Z,4.19
2019-03-04T14:31:10.502Z,4.30
2019-03-04T14:32:45.824Z,4.33
2019-03-04T14:34:21.523Z,4.53
2019-03-04T14:35:56.798Z,4.65
2019-03-04T14:37:39.080Z,4.64
2019-03-04T14:39:26.648Z,4.68
2019-03-04T14:41:02.455Z,4.74
2019-03-04T14:42:38.275Z,4.72
2019-03-04T14:44:17.155Z,4.69
2019-03-04T14:46:00.419Z,4.62
2019-03-04T14:47:47.628Z,4.58
2019-03-04T14:49:25.796Z,4.63
2019-03-04T14:51:01.285Z,4.50
2019-03-04T14:52:43.270Z,4.55
2019-03-04T14:54:20.838Z,4.56
2019-03-04T14:55:56.590Z,4.55
2019-03-04T14:57:44.551Z,4.55
2019-03-04T14:59:28.808Z,4.56
2019-03-04T15:01:07.686Z,4.54
2019-03-04T15:02:42.950Z,4.57
2019-03-04T15:04:21.397Z,4.58
2019-03-04T15:06:06.263Z,4.59
2019-03-04T15:07:37.270Z,4.58
2019-03-04T15:11:30.439Z,4.49
2019-03-04T15:13:10.031Z,4.48
2019-03-04T15:14:53.796Z,4.49
2019-03-04T15:16:45.022Z,4.55
2019-03-04T15:18:32.413Z,4.46
2019-03-04T15:20:33.606Z,4.50
2019-03-04T15:22:16.770Z,4.53
2019-03-04T15:23:53.870Z,4.49
2019-03-04T15:25:33.971Z,4.54
2019-03-04T15:27:14.048Z,4.55
2019-03-04T15:28:56.311Z,4.65
2019-03-04T15:30:33.464Z,4.71
2019-03-04T15:32:12.381Z,4.88
2019-03-04T15:33:57.361Z,4.82
2019-03-04T15:35:37.098Z,4.69
2019-03-04T15:37:16.171Z,4.63
2019-03-04T15:38:53.705Z,4.60
2019-03-04T15:40:29.933Z,4.61
2019-03-04T15:42:10.532Z,4.61
2019-03-04T15:43:51.641Z,4.59
2019-03-04T15:45:48.585Z,4.60
2019-03-04T15:47:42.800Z,4.59
2019-03-04T15:49:20.369Z,4.58
2019-03-04T15:51:12.268Z,4.66
2019-03-04T15:52:51.737Z,4.73
2019-03-04T15:54:27.727Z,4.78
2019-03-04T15:56:03.231Z,4.91
2019-03-04T15:57:51.081Z,4.88
2019-03-04T15:59:28.616Z,4.82
2019-03-04T16:01:17.107Z,4.84
2019-03-04T16:02:50.347Z,4.80
2019-03-04T16:04:29.599Z,4.71
2019-03-04T16:06:05.302Z,4.67
2019-03-04T16:08:07.170Z,4.63
2019-03-04T16:09:45.331Z,4.61
2019-03-04T16:11:24.209Z,4.60
2019-03-04T16:12:59.903Z,4.57
2019-03-04T16:14:44.850Z,4.60
2019-03-04T16:16:22.816Z,4.57
2019-03-04T16:18:01.575Z,4.56
2019-03-04T16:19:40.352Z,4.58
2019-03-04T16:21:17.783Z,4.52
2019-03-04T16:22:53.481Z,4.50
2019-03-04T16:24:30.895Z,4.50
2019-03-04T16:26:13.036Z,4.48
2019-03-04T16:27:48.843Z,4.42
2019-03-04T16:29:34.295Z,4.43
2019-03-04T16:31:10.217Z,4.42
2019-03-04T16:32:50.774Z,4.42
2019-03-04T16:34:31.371Z,4.44
2019-03-04T16:36:07.414Z,4.39
2019-03-04T16:37:45.330Z,4.38
2019-03-04T16:39:23.527Z,4.35
2019-03-04T16:41:02.581Z,4.37
2019-03-04T16:42:39.528Z,4.37
2019-03-04T16:44:17.866Z,4.41
2019-03-04T16:45:58.464Z,4.37
2019-03-04T16:47:35.410Z,4.33
2019-03-04T16:49:13.030Z,4.27
2019-03-04T16:50:52.677Z,4.26
2019-03-04T16:52:36.002Z,4.19
2019-03-04T16:54:19.261Z,4.18
2019-03-04T16:55:58.214Z,4.12
2019-03-04T16:57:43.946Z,4.12
2019-03-04T16:59:34.335Z,4.09
2019-03-04T17:01:11.282Z,4.11
2019-03-04T17:03:03.829Z,4.11
2019-03-04T17:04:43.592Z,4.04
2019-03-04T17:06:21.061Z,4.04
2019-03-04T17:08:01.172Z,3.96
2019-03-04T17:09:38.515Z,3.95
2019-03-04T17:11:16.870Z,3.95
2019-03-04T17:12:55.014Z,3.86
2019-03-04T17:14:42.693Z,3.78
2019-03-04T17:16:21.547Z,3.72
2019-03-04T17:17:59.858Z,3.65
2019-03-04T17:19:41.315Z,3.67
2019-03-04T17:21:21.455Z,3.65
2019-03-04T17:22:58.229Z,3.65
2019-03-04T17:24:42.380Z,3.57
2019-03-04T17:26:21.284Z,3.50
2019-03-04T17:27:58.213Z,3.43
2019-03-04T17:29:48.558Z,3.48
2019-03-04T17:31:38.396Z,3.44
2019-03-04T17:33:14.210Z,3.39
2019-03-04T17:34:52.990Z,3.28
2019-03-04T17:36:31.820Z,3.29
2019-03-04T17:38:11.944Z,3.23
2019-03-04T17:39:58.067Z,3.16
2019-03-04T17:41:33.671Z,3.18
2019-03-04T17:43:22.756Z,3.30
2019-03-04T17:45:03.316Z,3.29
2019-03-04T17:46:38.133Z,3.32
2019-03-04T17:48:13.679Z,3.28
2019-03-04T17:49:58.899Z,3.28
2019-03-04T17:51:40.061Z,3.28
2019-03-04T17:53:18.390Z,3.30
2019-03-04T17:54:57.616Z,3.24
2019-03-04T17:56:33.838Z,3.19
2019-03-04T17:58:17.688Z,3.19
2019-03-04T17:59:55.238Z,3.16
2019-03-04T18:01:31.796Z,3.11
2019-03-04T18:03:08.817Z,3.21
2019-03-04T18:04:47.340Z,3.35
2019-03-04T18:06:23.415Z,3.32
2019-03-04T18:08:01.180Z,3.31
2019-03-04T18:09:39.302Z,3.43
2019-03-04T18:11:19.651Z,3.41
2019-03-04T18:12:55.962Z,3.41
2019-03-04T18:14:31.193Z,3.39
2019-03-04T18:16:06.500Z,3.39
2019-03-04T18:17:43.089Z,3.36
2019-03-04T18:19:20.790Z,3.31
2019-03-04T18:20:58.708Z,3.43
2019-03-04T18:22:36.556Z,3.47
2019-03-04T18:24:12.058Z,3.54
2019-03-04T18:25:53.629Z,3.51
2019-03-04T18:27:56.472Z,3.55
2019-03-04T18:29:51.786Z,3.56
2019-03-04T18:31:42.259Z,3.53
2019-03-04T18:33:53.961Z,3.53
2019-03-04T18:36:28.237Z,3.54
2019-03-04T18:38:23.631Z,3.58
2019-03-04T18:40:41.710Z,3.60
2019-03-04T18:43:14.244Z,3.67
2019-03-04T18:45:25.139Z,3.65
2019-03-04T18:47:47.405Z,3.62
2019-03-04T18:49:35.908Z,3.60
2019-03-04T18:51:14.305Z,3.68
2019-03-04T18:52:53.177Z,3.67
2019-03-04T18:54:37.753Z,3.69
2019-03-04T18:56:21.937Z,3.77
2019-03-04T18:57:59.711Z,3.77
2019-03-04T18:59:38.829Z,3.79
2019-03-04T19:01:30.450Z,3.77
2019-03-04T19:03:13.516Z,3.80
2019-03-04T19:05:00.923Z,3.78
2019-03-04T19:06:35.174Z,3.82
2019-03-04T19:08:22.326Z,3.76
2019-03-04T19:10:01.392Z,3.72
2019-03-04T19:11:39.270Z,3.73
2019-03-04T19:13:17.319Z,3.71
2019-03-04T19:15:10.174Z,3.70
2019-03-04T19:16:49.999Z,3.69
2019-03-04T19:18:27.850Z,3.68
2019-03-04T19:20:11.634Z,3.61
2019-03-04T19:21:49.307Z,3.66
2019-03-04T19:23:32.348Z,3.71
2019-03-04T19:25:10.114Z,3.68
2019-03-04T19:26:51.660Z,3.74
2019-03-04T19:28:28.881Z,3.65
2019-03-04T19:30:05.437Z,3.66
2019-03-04T19:31:46.004Z,3.63
2019-03-04T19:33:21.238Z,3.63
2019-03-04T19:35:06.433Z,3.66
2019-03-04T19:36:48.339Z,3.74
2019-03-04T19:38:33.246Z,3.75
2019-03-04T19:40:12.560Z,3.77
2019-03-04T19:41:58.648Z,3.77
2019-03-04T19:43:37.709Z,3.72
2019-03-04T19:45:16.546Z,3.70
2019-03-04T19:46:54.744Z,3.72
2019-03-04T19:48:34.645Z,3.72
2019-03-04T19:50:15.153Z,3.73
2019-03-04T19:51:50.822Z,3.70
2019-03-04T19:53:27.254Z,3.67
2019-03-04T19:55:06.275Z,3.68
2019-03-04T19:56:46.150Z,3.64
2019-03-04T19:58:21.457Z,3.59
2019-03-04T20:00:05.423Z,3.54
2019-03-04T20:01:49.501Z,3.51
2019-03-04T20:03:27.225Z,3.47
2019-03-04T20:05:07.425Z,3.46
2019-03-04T20:06:52.248Z,3.44
2019-03-04T20:08:29.786Z,3.41
2019-03-04T20:10:25.334Z,3.38
2019-03-04T20:11:48.227Z,3.36
2019-03-04T20:13:25.355Z,3.36
2019-03-04T20:15:08.918Z,3.32
2019-03-04T20:16:53.120Z,3.30
2019-03-04T20:18:44.411Z,3.28
2019-03-04T20:20:29.473Z,3.26
2019-03-04T20:22:06.293Z,3.27
2019-03-04T20:23:51.957Z,3.22
2019-03-04T20:25:37.168Z,3.15
2019-03-04T20:27:20.781Z,3.11
2019-03-04T20:28:59.272Z,3.10
2019-03-04T20:30:35.940Z,3.12
2019-03-04T20:32:28.403Z,3.11
2019-03-04T20:34:06.776Z,3.12
2019-03-04T20:35:46.098Z,3.11
2019-03-04T20:37:27.850Z,3.09
2019-03-04T20:39:09.857Z,3.08
2019-03-04T20:40:45.471Z,3.10
2019-03-04T20:42:21.454Z,3.07
2019-03-04T20:44:03.429Z,3.07
2019-03-04T20:45:41.718Z,3.06
2019-03-04T20:47:16.906Z,3.09
2019-03-04T20:49:11.950Z,3.08
2019-03-04T20:50:49.164Z,3.08
2019-03-04T20:52:26.587Z,3.10
2019-03-04T20:54:10.406Z,3.19
2019-03-04T20:55:55.405Z,3.22
2019-03-04T20:57:33.060Z,3.24
2019-03-04T20:59:15.053Z,3.28
2019-03-04T21:00:55.482Z,3.31
2019-03-04T21:02:33.197Z,3.33
2019-03-04T21:04:16.196Z,3.38
2019-03-04T21:05:56.791Z,3.40
2019-03-04T21:07:44.258Z,3.42
2019-03-04T21:09:23.612Z,3.44
2019-03-04T21:10:59.751Z,3.44
2019-03-04T21:12:37.331Z,3.47
2019-03-04T21:14:19.281Z,3.50
2019-03-04T21:15:50.748Z,3.50
2019-03-04T21:17:26.272Z,3.49
2019-03-04T21:19:04.192Z,3.53
2019-03-04T21:20:39.423Z,3.54
2019-03-04T21:22:21.951Z,3.50
2019-03-04T21:23:57.631Z,3.47
2019-03-04T21:25:38.213Z,3.46
2019-03-04T21:27:16.735Z,3.40
2019-03-04T21:29:43.552Z,3.40
2019-03-04T21:31:48.423Z,3.42
2019-03-04T21:34:10.838Z,3.42
2019-03-04T21:36:28.203Z,3.44
2019-03-04T21:38:06.197Z,3.40
2019-03-04T21:39:41.897Z,3.30
2019-03-04T21:41:37.002Z,3.24
2019-03-04T21:43:19.764Z,3.24
2019-03-04T21:45:36.994Z,3.20
2019-03-04T21:47:38.598Z,3.12
2019-03-04T21:49:16.884Z,3.04
2019-03-04T21:51:21.080Z,2.98
2019-03-04T21:53:20.700Z,2.96
2019-03-04T21:54:59.191Z,2.94
2019-03-04T21:56:58.052Z,2.81
2019-03-04T21:58:43.377Z,2.77
2019-03-04T22:00:42.715Z,2.70
2019-03-04T22:02:45.679Z,2.63
2019-03-04T22:04:27.792Z,2.54
2019-03-04T22:06:11.531Z,2.46
2019-03-04T22:07:50.327Z,2.40
2019-03-04T22:09:42.469Z,2.39
2019-03-04T22:11:25.216Z,2.37
2019-03-04T22:13:21.326Z,2.38
2019-03-04T22:15:04.297Z,2.38
2019-03-04T22:17:08.497Z,2.37
2019-03-04T22:19:07.399Z,2.39
2019-03-04T22:20:40.902Z,2.41
2019-03-04T22:22:35.310Z,2.45
2019-03-04T22:24:22.207Z,2.49
2019-03-04T22:26:13.067Z,2.51